Time;durP1;ratioP1;P1;durP2;ratioP2;P2;SDS_P1;SDS_P2;PMS_P1;PMS_P2;Temp;Humidity;BMP_temperature;BMP_pressure;BME280_temperature;BME280_humidity;BME280_pressure;Samples;Min_cycle;Max_cycle;Signal;HPM_P1;HPM_P2
2024/03/14 00:02:25;;;;;;;173.68;66.82;;;;;;;10.93;92.02;98260.06;5032130;28;20029;-74
2024/03/14 00:04:51;;;;;;;139.02;62.03;;;;;;;11.02;92.00;98272.88;5038251;28;20052;-74
2024/03/14 00:07:16;;;;;;;115.50;55.60;;;;;;;11.00;92.23;98275.00;5048745;28;20041;-75
2024/03/14 00:09:43;;;;;;;171.63;67.72;;;;;;;11.05;92.00;98272.41;5027900;28;20396;-74
2024/03/14 00:12:08;;;;;;;119.50;59.53;;;;;;;10.96;92.02;98257.69;5027070;28;20039;-74
2024/03/14 00:14:35;;;;;;;143.65;62.80;;;;;;;11.00;92.38;98266.91;5066822;28;20029;-76
2024/03/14 00:17:00;;;;;;;156.32;63.92;;;;;;;11.03;92.37;98266.44;5051901;28;20051;-76
2024/03/14 00:19:25;;;;;;;114.18;57.67;;;;;;;10.99;92.11;98257.19;5049471;28;20032;-74
2024/03/14 00:21:51;;;;;;;102.88;54.40;;;;;;;11.06;92.21;98260.53;5047799;28;20445;-75
2024/03/14 00:24:17;;;;;;;103.40;54.70;;;;;;;11.05;92.32;98258.94;5037743;28;20033;-74
2024/03/14 00:26:42;;;;;;;115.72;56.95;;;;;;;10.91;91.92;98241.44;5047001;28;20033;-75
2024/03/14 00:29:08;;;;;;;97.35;51.50;;;;;;;10.98;92.38;98241.28;5051370;28;20029;-75
2024/03/14 00:31:38;;;;;;;99.70;51.63;;;;;;;11.07;92.30;98247.88;5068327;28;20029;-74
2024/03/14 00:34:05;;;;;;;104.00;54.17;;;;;;;11.05;91.49;98236.53;5054485;28;20037;-75
2024/03/14 00:36:30;;;;;;;109.25;55.78;;;;;;;11.10;91.88;98244.72;5025272;28;20032;-75
2024/03/14 00:38:58;;;;;;;104.78;54.45;;;;;;;11.10;91.70;98245.53;5057580;28;20056;-75
2024/03/14 00:41:24;;;;;;;148.82;63.88;;;;;;;11.11;92.04;98255.22;5048782;28;20018;-76
2024/03/14 00:43:50;;;;;;;124.68;58.83;;;;;;;11.04;92.11;98235.72;5037359;28;20075;-75
2024/03/14 00:46:15;;;;;;;123.57;58.90;;;;;;;10.94;92.03;98222.09;5049021;28;20025;-75
2024/03/14 00:48:42;;;;;;;149.30;64.10;;;;;;;11.11;91.92;98241.75;5037890;28;20040;-75
2024/03/14 00:51:10;;;;;;;149.57;65.15;;;;;;;11.15;92.29;98250.19;5053609;28;20021;-75
2024/03/14 00:53:36;;;;;;;116.18;56.80;;;;;;;11.19;91.67;98242.41;5053631;28;20055;-75
2024/03/14 00:56:01;;;;;;;103.47;53.80;;;;;;;11.19;91.94;98242.41;5055300;28;20025;-75
2024/03/14 00:58:28;;;;;;;150.10;63.33;;;;;;;11.21;91.82;98242.97;5070023;28;20550;-75
2024/03/14 01:00:54;;;;;;;141.85;62.33;;;;;;;11.11;92.19;98241.75;5037070;28;20020;-76
2024/03/14 01:03:19;;;;;;;136.85;60.20;;;;;;;11.17;92.06;98233.75;5053135;28;20041;-75
2024/03/14 01:05:45;;;;;;;93.78;51.72;;;;;;;11.18;91.70;98236.19;5053757;28;20503;-75
2024/03/14 01:08:10;;;;;;;136.65;60.63;;;;;;;11.20;92.12;98249.44;5037344;28;20444;-75
2024/03/14 01:10:36;;;;;;;113.63;56.17;;;;;;;11.20;91.49;98238.66;5037295;28;20028;-76
2024/03/14 01:13:02;;;;;;;138.68;61.63;;;;;;;11.13;91.97;98227.22;5054826;28;20035;-76
2024/03/14 01:15:28;;;;;;;137.63;60.83;;;;;;;11.23;91.99;98238.13;5070159;28;20492;-75
2024/03/14 01:17:54;;;;;;;108.97;55.40;;;;;;;11.26;91.33;98238.47;5053737;28;20586;-76
2024/03/14 01:20:20;;;;;;;104.85;55.40;;;;;;;10.97;91.78;98202.72;5053519;28;20025;-75
2024/03/14 01:22:48;;;;;;;122.85;57.50;;;;;;;11.07;91.89;98213.69;5036510;28;20055;-76
2024/03/14 01:25:14;;;;;;;107.13;53.80;;;;;;;11.19;91.82;98226.22;5053348;28;20036;-74
2024/03/14 01:27:40;;;;;;;131.82;61.80;;;;;;;11.17;91.66;98220.28;5053365;28;20523;-75
2024/03/14 01:30:09;;;;;;;114.78;54.75;;;;;;;11.18;91.91;98213.84;5044404;28;20400;-75
2024/03/14 01:32:35;;;;;;;100.22;52.33;;;;;;;11.21;92.02;98224.09;5046934;28;20140;-74
2024/03/14 01:35:01;;;;;;;101.05;52.92;;;;;;;11.25;91.87;98219.88;5035920;28;20147;-74
2024/03/14 01:37:26;;;;;;;98.63;51.78;;;;;;;11.19;91.29;98210.06;5051959;28;20041;-74
2024/03/14 01:39:52;;;;;;;99.07;52.00;;;;;;;11.17;91.69;98201.41;5053200;28;20043;-73
2024/03/14 01:42:17;;;;;;;96.47;51.05;;;;;;;11.22;91.33;98209.56;5052451;28;20075;-73
2024/03/14 01:44:51;;;;;;;132.57;60.28;;;;;;;11.22;91.78;98204.19;5041536;28;20032;-73
2024/03/14 01:47:17;;;;;;;102.45;52.03;;;;;;;11.24;91.93;98207.44;5050221;28;20041;-74
2024/03/14 01:49:42;;;;;;;99.43;51.63;;;;;;;11.22;91.64;98207.69;5048254;28;20070;-73
2024/03/14 01:52:08;;;;;;;124.53;58.17;;;;;;;11.20;91.98;98198.22;5045012;28;20045;-74
2024/03/14 01:54:34;;;;;;;89.38;49.08;;;;;;;11.23;91.58;98205.78;5052056;28;20025;-73
2024/03/14 01:57:00;;;;;;;108.68;52.85;;;;;;;11.13;91.85;98184.09;5052418;28;20044;-74
2024/03/14 01:59:30;;;;;;;94.75;49.92;;;;;;;11.15;92.18;98187.38;5068848;28;20025;-75
2024/03/14 02:01:56;;;;;;;92.75;49.30;;;;;;;11.24;92.00;98200.16;5036330;28;20399;-74
2024/03/14 02:04:28;;;;;;;96.70;50.38;;;;;;;11.18;91.41;98193.06;5050960;28;20112;-75
2024/03/14 02:07:08;;;;;;;115.25;53.50;;;;;;;11.25;91.45;98195.59;5030209;28;20044;-74
2024/03/14 02:09:35;;;;;;;86.72;49.38;;;;;;;11.26;92.08;98199.91;5027929;28;20028;-74
2024/03/14 02:12:04;;;;;;;91.60;50.15;;;;;;;11.21;91.63;98183.66;5051845;28;20098;-74
2024/03/14 02:14:30;;;;;;;92.32;48.92;;;;;;;11.27;91.88;98196.16;5035449;28;20037;-75
2024/03/14 02:16:56;;;;;;;99.68;49.65;;;;;;;11.20;91.35;98184.75;5035876;28;20025;-74
2024/03/14 02:19:21;;;;;;;99.60;50.95;;;;;;;11.29;91.99;98194.84;5052022;28;20047;-74
2024/03/14 02:21:48;;;;;;;97.22;49.95;;;;;;;11.27;91.62;98190.78;5051854;28;20056;-74
2024/03/14 02:24:13;;;;;;;113.78;54.08;;;;;;;11.23;91.80;98185.06;5026920;28;20489;-75
2024/03/14 02:26:40;;;;;;;87.68;48.33;;;;;;;11.21;91.14;98172.88;5043420;28;20028;-75
2024/03/14 02:29:07;;;;;;;114.50;54.40;;;;;;;11.27;91.72;98191.56;5052943;28;20108;-75
2024/03/14 02:31:33;;;;;;;126.10;57.40;;;;;;;11.05;91.21;98148.44;5045147;28;20036;-75
2024/03/14 02:33:58;;;;;;;148.30;58.95;;;;;;;11.29;91.45;98194.03;5052779;28;20036;-75
2024/03/14 02:36:24;;;;;;;107.40;52.08;;;;;;;11.18;91.83;98170.72;5052722;28;20029;-75
2024/03/14 02:38:49;;;;;;;104.10;49.83;;;;;;;11.23;91.48;98184.22;5037541;28;20064;-75
2024/03/14 02:41:15;;;;;;;84.35;47.55;;;;;;;11.16;91.23;98173.63;5052047;28;20031;-75
2024/03/14 02:43:41;;;;;;;120.15;56.67;;;;;;;11.28;91.60;98189.69;5051059;28;20114;-75
2024/03/14 02:46:08;;;;;;;111.40;52.85;;;;;;;11.19;91.20;98161.53;5052447;28;20067;-75
2024/03/14 02:48:36;;;;;;;113.90;54.22;;;;;;;11.21;91.09;98170.19;5041489;28;20075;-75
2024/03/14 02:51:05;;;;;;;96.18;49.42;;;;;;;11.25;91.62;98174.03;5043042;28;20056;-75
2024/03/14 02:53:30;;;;;;;99.32;50.15;;;;;;;11.24;91.47;98167.00;5050378;28;20033;-74
2024/03/14 02:55:57;;;;;;;86.40;47.15;;;;;;;11.20;91.02;98163.19;5027076;28;20383;-75
2024/03/14 02:58:23;;;;;;;101.32;51.55;;;;;;;11.32;91.25;98182.75;5034412;28;20033;-75
2024/03/14 03:00:49;;;;;;;104.38;51.78;;;;;;;11.29;91.35;98169.78;5049096;28;20108;-74
2024/03/14 03:03:15;;;;;;;93.15;49.40;;;;;;;11.28;90.95;98170.81;5034259;28;20057;-73
2024/03/14 03:05:41;;;;;;;85.10;47.30;;;;;;;11.21;91.13;98156.72;5067533;28;20047;-74
2024/03/14 03:08:09;;;;;;;86.60;46.78;;;;;;;11.35;91.11;98176.84;5068508;28;20029;-74
2024/03/14 03:10:36;;;;;;;98.55;50.72;;;;;;;11.25;90.83;98164.03;5023411;28;20063;-75
2024/03/14 03:13:01;;;;;;;98.25;50.22;;;;;;;11.31;91.18;98173.03;5045015;28;20847;-75
2024/03/14 03:15:27;;;;;;;84.85;46.17;;;;;;;11.22;91.16;98164.56;5050114;28;20060;-76
2024/03/14 03:17:52;;;;;;;83.05;47.10;;;;;;;11.35;90.72;98188.47;5050697;28;20064;-75
2024/03/14 03:20:18;;;;;;;83.75;46.17;;;;;;;11.19;90.69;98159.66;5033958;28;20053;-74
2024/03/14 03:25:32;;;;;;;85.20;46.08;;;;;;;11.19;91.39;98156.97;5035822;28;20495;-75
2024/03/14 03:27:58;;;;;;;84.88;47.85;;;;;;;11.27;90.74;98161.91;5051789;28;20021;-75
2024/03/14 03:30:24;;;;;;;89.35;47.28;;;;;;;11.32;90.45;98178.16;5049540;28;20043;-75
2024/03/14 03:32:50;;;;;;;81.30;46.58;;;;;;;11.33;90.05;98174.41;5050348;28;20032;-75
2024/03/14 03:35:18;;;;;;;118.40;54.22;;;;;;;11.19;90.55;98148.06;5050283;28;20052;-76
2024/03/14 03:37:47;;;;;;;97.15;48.38;;;;;;;11.27;91.18;98169.22;5014307;28;20026;-75
2024/03/14 03:40:22;;;;;;;87.60;47.97;;;;;;;11.26;90.97;98172.94;5031091;28;20557;-76
2024/03/14 03:42:48;;;;;;;103.78;52.13;;;;;;;11.15;91.50;98165.81;5034926;28;20041;-76
2024/03/14 03:45:14;;;;;;;86.05;47.35;;;;;;;11.32;91.02;98182.75;5050081;28;20017;-76
2024/03/14 03:47:40;;;;;;;84.13;47.15;;;;;;;11.32;90.77;98183.56;5033769;28;20029;-76
2024/03/14 03:50:11;;;;;;;93.07;49.22;;;;;;;11.31;90.79;98181.13;5045109;28;20025;-75
2024/03/14 03:52:39;;;;;;;127.90;58.15;;;;;;;11.18;90.96;98170.72;5050502;28;20025;-76
2024/03/14 03:55:06;;;;;;;122.03;56.95;;;;;;;11.25;90.82;98172.13;5050421;28;20058;-76
2024/03/14 03:57:32;;;;;;;139.35;59.58;;;;;;;11.30;90.67;98182.16;5051854;28;20044;-76
2024/03/14 03:59:59;;;;;;;95.32;50.63;;;;;;;11.29;90.58;98178.69;5050370;28;20029;-76
2024/03/14 04:02:26;;;;;;;91.22;49.22;;;;;;;11.21;91.09;98151.31;5032224;28;20053;-76
2024/03/14 04:04:56;;;;;;;93.63;50.17;;;;;;;11.31;91.00;98164.94;5048394;28;20107;-75
2024/03/14 04:07:21;;;;;;;93.45;49.60;;;;;;;11.26;90.95;98159.47;5046960;28;20785;-75
2024/03/14 04:09:47;;;;;;;128.73;57.90;;;;;;;11.21;91.15;98148.63;5053512;28;20021;-75
2024/03/14 04:12:14;;;;;;;129.82;59.92;;;;;;;11.20;90.70;98152.41;5051184;28;20116;-73
2024/03/14 04:14:46;;;;;;;119.20;58.00;;;;;;;11.18;90.72;98159.94;5044749;28;20044;-73
2024/03/14 04:17:12;;;;;;;117.90;57.35;;;;;;;11.23;91.29;98159.97;5050772;28;20028;-72
2024/03/14 04:19:39;;;;;;;135.57;62.15;;;;;;;11.23;90.92;98163.47;5053947;28;20029;-72
2024/03/14 04:22:05;;;;;;;116.07;58.67;;;;;;;11.19;90.96;98156.16;5070430;28;20056;-73
2024/03/14 04:24:32;;;;;;;126.03;60.33;;;;;;;11.21;91.14;98162.09;5048128;28;20025;-73
2024/03/14 04:26:58;;;;;;;125.07;62.00;;;;;;;11.16;90.81;98149.38;5047393;28;20032;-74
2024/03/14 04:29:26;;;;;;;151.63;67.60;;;;;;;11.11;90.84;98144.72;5045890;28;20380;-75
2024/03/14 04:31:52;;;;;;;111.22;56.15;;;;;;;11.13;90.83;98140.97;5048961;28;20685;-76
2024/03/14 04:34:18;;;;;;;135.05;63.85;;;;;;;11.19;91.05;98159.66;5053576;28;20647;-74
2024/03/14 04:36:44;;;;;;;122.28;58.63;;;;;;;11.20;91.16;98157.78;5053735;28;20115;-74
2024/03/14 04:39:09;;;;;;;105.38;54.40;;;;;;;11.17;91.10;98161.78;5054838;28;20028;-75
2024/03/14 04:41:35;;;;;;;134.82;62.83;;;;;;;11.09;90.83;98138.78;5041089;28;20033;-75
2024/03/14 04:44:03;;;;;;;95.78;51.72;;;;;;;11.10;91.21;98140.41;5039354;28;20547;-76
2024/03/14 04:46:31;;;;;;;127.10;58.92;;;;;;;11.02;91.11;98135.44;5053363;28;20045;-75
2024/03/14 04:48:57;;;;;;;90.43;50.40;;;;;;;11.02;91.15;98134.63;5053373;28;20484;-74
2024/03/14 04:51:22;;;;;;;91.35;50.65;;;;;;;11.09;91.20;98146.88;5018338;28;20029;-74
2024/03/14 04:53:48;;;;;;;97.35;52.05;;;;;;;11.05;90.73;98144.91;5049669;28;20404;-73
2024/03/14 04:56:13;;;;;;;110.03;55.38;;;;;;;11.04;90.94;98141.41;5052684;28;20044;-74
2024/03/14 04:58:38;;;;;;;126.82;58.13;;;;;;;11.05;90.71;98151.13;5045195;28;20409;-75
2024/03/14 05:01:04;;;;;;;117.05;57.15;;;;;;;11.13;91.38;98157.16;5045492;28;20069;-74
2024/03/14 05:03:30;;;;;;;116.10;56.70;;;;;;;11.06;91.11;98160.81;5036290;28;20107;-74
2024/03/14 05:05:56;;;;;;;114.43;57.97;;;;;;;11.08;91.03;98161.38;5053342;28;20068;-74
2024/03/14 05:08:22;;;;;;;123.47;59.45;;;;;;;10.99;90.62;98140.53;5069481;28;20029;-75
2024/03/14 05:10:48;;;;;;;112.68;57.92;;;;;;;10.95;91.41;98153.66;5040111;28;20054;-75
2024/03/14 05:13:13;;;;;;;123.28;60.60;;;;;;;11.03;91.06;98155.94;5050318;28;20100;-75
2024/03/14 05:15:39;;;;;;;124.35;62.53;;;;;;;10.93;91.43;98146.88;5032152;28;20116;-76
2024/03/14 05:18:05;;;;;;;118.88;60.42;;;;;;;10.84;91.02;98133.03;5050692;28;20060;-76
2024/03/14 05:20:31;;;;;;;101.20;57.00;;;;;;;10.85;91.03;98145.44;5027636;28;20304;-75
2024/03/14 05:22:57;;;;;;;132.93;68.72;;;;;;;10.93;90.66;98158.50;5053367;28;20111;-77
2024/03/14 05:25:23;;;;;;;135.65;74.35;;;;;;;10.91;90.73;98155.22;5052610;28;20044;-76
2024/03/14 05:27:50;;;;;;;120.88;63.40;;;;;;;10.79;90.62;98141.03;5054371;28;20025;-75
2024/03/14 05:30:17;;;;;;;146.35;67.93;;;;;;;10.77;90.93;98135.09;5052552;28;20163;-76
2024/03/14 05:32:44;;;;;;;117.43;60.25;;;;;;;10.83;90.64;98161.03;5050601;28;20021;-75
2024/03/14 05:35:11;;;;;;;125.13;63.50;;;;;;;10.68;90.83;98128.50;5054424;28;20115;-75
2024/03/14 05:37:36;;;;;;;120.75;61.50;;;;;;;10.79;90.65;98157.19;5049971;28;20060;-75
2024/03/14 05:40:02;;;;;;;109.25;56.90;;;;;;;10.70;90.83;98145.22;5051821;23;20037;-75
2024/03/14 05:42:28;;;;;;;113.80;57.42;;;;;;;10.74;90.89;98159.81;5055610;28;20072;-75
2024/03/14 05:44:56;;;;;;;142.32;62.97;;;;;;;10.70;90.47;98147.09;5043516;28;20037;-73
2024/03/14 05:47:21;;;;;;;108.43;56.78;;;;;;;10.70;90.29;98158.69;5054452;28;20066;-76
2024/03/14 05:49:47;;;;;;;141.43;66.18;;;;;;;10.69;90.29;98145.47;5055592;28;20032;-76
2024/03/14 05:52:12;;;;;;;126.82;62.20;;;;;;;10.62;90.47;98145.63;5008968;28;20017;-77
2024/03/14 05:54:38;;;;;;;100.00;54.00;;;;;;;10.66;90.75;98145.97;5040979;28;20033;-76
2024/03/14 05:57:04;;;;;;;147.68;65.38;;;;;;;10.75;90.09;98161.47;5035363;28;20017;-76
2024/03/14 05:59:30;;;;;;;148.32;65.55;;;;;;;10.70;90.40;98147.91;5020629;28;20139;-76
2024/03/14 06:01:56;;;;;;;149.90;65.57;;;;;;;10.79;90.54;98167.16;5018911;28;20032;-76
2024/03/14 06:04:22;;;;;;;99.85;54.13;;;;;;;10.70;90.48;98145.22;5035334;28;20041;-76
2024/03/14 06:06:51;;;;;;;114.40;58.42;;;;;;;10.63;90.47;98141.88;5018328;28;20029;-76
2024/03/14 06:09:17;;;;;;;141.82;64.45;;;;;;;10.62;90.71;98134.84;5035427;28;20047;-76
2024/03/14 06:11:42;;;;;;;112.03;56.45;;;;;;;10.68;90.52;98139.25;5018538;28;20021;-77
2024/03/14 06:14:08;;;;;;;125.72;60.70;;;;;;;10.81;90.89;98143.47;5034924;28;20430;-76
2024/03/14 06:16:33;;;;;;;140.82;65.35;;;;;;;10.74;90.85;98130.19;5022474;28;20120;-76
2024/03/14 06:18:59;;;;;;;115.65;60.10;;;;;;;10.86;91.08;98165.94;5035130;28;20033;-77
2024/03/14 06:21:24;;;;;;;129.90;61.55;;;;;;;10.84;91.12;98154.59;5018091;28;20037;-77
2024/03/14 06:23:55;;;;;;;124.35;61.22;;;;;;;10.90;91.63;98158.97;5018069;28;20116;-76
2024/03/14 06:26:20;;;;;;;129.48;62.83;;;;;;;10.97;91.13;98162.31;5034885;28;20029;-77
2024/03/14 06:28:46;;;;;;;117.78;60.40;;;;;;;10.86;91.54;98136.28;5001975;28;20094;-77
2024/03/14 06:31:15;;;;;;;112.68;59.45;;;;;;;11.06;91.29;98163.50;5018163;28;20075;-77
2024/03/14 06:33:40;;;;;;;130.95;63.83;;;;;;;11.01;92.29;98150.00;5018287;28;20032;-77
2024/03/14 06:36:07;;;;;;;130.23;62.90;;;;;;;11.15;91.81;98157.72;5034398;28;20083;-77
2024/03/14 06:38:32;;;;;;;134.43;66.80;;;;;;;11.11;91.78;98155.50;5018243;28;20067;-76
2024/03/14 06:40:57;;;;;;;131.40;66.13;;;;;;;11.16;92.08;98162.03;5034219;28;20064;-76
2024/03/14 06:43:23;;;;;;;125.50;62.92;;;;;;;11.07;92.25;98132.81;5033883;28;20025;-77
2024/03/14 06:45:48;;;;;;;121.28;61.90;;;;;;;11.29;91.42;98167.06;5027036;28;20194;-78
2024/03/14 06:48:17;;;;;;;119.53;61.72;;;;;;;11.39;91.91;98178.00;5020129;28;20021;-76
2024/03/14 06:50:45;;;;;;;122.57;64.10;;;;;;;11.32;91.54;98167.38;5051301;28;20060;-76
2024/03/14 06:53:11;;;;;;;112.68;59.63;;;;;;;11.37;91.39;98158.53;5034110;28;20021;-76
2024/03/14 06:55:37;;;;;;;118.05;59.95;;;;;;;11.36;91.68;98155.06;5017902;28;20035;-76
2024/03/14 06:58:02;;;;;;;108.35;57.97;;;;;;;11.52;91.30;98161.44;5034252;28;20481;-76
2024/03/14 07:00:29;;;;;;;100.63;55.45;;;;;;;11.46;91.05;98146.28;5017909;28;20047;-76
2024/03/14 07:02:55;;;;;;;93.85;53.63;;;;;;;11.46;91.24;98135.50;5017760;28;20032;-76
2024/03/14 07:05:23;;;;;;;87.53;51.97;;;;;;;11.63;91.62;98155.91;5001476;28;20033;-76
2024/03/14 07:07:49;;;;;;;88.90;51.45;;;;;;;11.73;91.17;98152.56;5034834;28;20025;-76
2024/03/14 07:10:16;;;;;;;88.40;49.55;;;;;;;11.77;91.14;98150.97;5035187;28;20506;-77
2024/03/14 07:12:47;;;;;;;84.47;50.45;;;;;;;11.94;91.37;98176.00;5017929;28;20029;-74
2024/03/14 07:15:13;;;;;;;84.43;51.08;;;;;;;11.88;90.52;98166.19;5044906;28;20538;-76
2024/03/14 07:17:40;;;;;;;83.95;50.58;;;;;;;12.01;90.54;98165.81;5050516;28;20013;-75
2024/03/14 07:20:33;;;;;;;81.55;48.72;;;;;;;12.06;90.43;98179.38;5044777;28;20076;-76
2024/03/14 07:22:52;;;;;;;78.10;47.20;;;;;;;12.00;90.00;98168.75;5036353;28;20048;-76
2024/03/14 07:25:17;;;;;;;76.20;47.00;;;;;;;11.93;89.92;98162.75;5034119;28;20025;-77
2024/03/14 07:27:47;;;;;;;74.25;45.47;;;;;;;12.06;89.74;98179.38;5017996;28;20059;-77
2024/03/14 07:30:14;;;;;;;72.95;44.92;;;;;;;11.94;89.64;98164.38;5034248;28;20021;-77
2024/03/14 07:32:45;;;;;;;67.50;42.55;;;;;;;12.13;89.26;98185.38;5017422;28;20029;-77
2024/03/14 07:35:11;;;;;;;71.63;44.88;;;;;;;12.13;90.03;98196.19;5034001;28;20061;-76
2024/03/14 07:37:36;;;;;;;72.85;45.00;;;;;;;12.05;89.44;98172.34;5016966;28;20068;-77
2024/03/14 07:40:04;;;;;;;77.20;46.67;;;;;;;12.03;89.11;98158.28;5033752;28;20072;-75
2024/03/14 07:42:31;;;;;;;79.40;46.78;;;;;;;12.15;89.31;98172.44;5033438;28;20494;-77
2024/03/14 07:44:58;;;;;;;80.18;46.55;;;;;;;12.18;89.21;98188.09;5033988;28;20036;-76
2024/03/14 07:47:25;;;;;;;89.95;53.70;;;;;;;12.21;89.47;98176.81;5019331;28;20040;-77
2024/03/14 07:49:51;;;;;;;93.05;55.70;;;;;;;12.31;89.28;98198.53;5034259;28;20488;-77
2024/03/14 07:52:17;;;;;;;86.53;52.88;;;;;;;12.31;88.95;98198.53;5033854;28;20066;-77
2024/03/14 07:54:44;;;;;;;91.82;53.92;;;;;;;12.26;88.89;98200.34;5017322;28;20479;-76
2024/03/14 07:57:17;;;;;;;79.78;48.38;;;;;;;12.24;89.23;98192.50;5034212;28;20397;-77
2024/03/14 07:59:43;;;;;;;70.75;47.30;;;;;;;12.33;89.06;98201.78;5018116;28;20040;-77
2024/03/14 08:02:12;;;;;;;75.75;47.10;;;;;;;12.27;88.87;98202.00;5033765;28;20017;-77
2024/03/14 08:04:38;;;;;;;72.65;46.03;;;;;;;12.28;89.52;98193.63;5042457;28;20116;-77
2024/03/14 08:07:10;;;;;;;63.17;43.20;;;;;;;12.33;88.78;98212.59;5036067;28;20043;-77
2024/03/14 08:09:42;;;;;;;72.07;48.28;;;;;;;12.29;88.52;98211.47;5026378;28;20045;-77
2024/03/14 08:12:08;;;;;;;72.85;50.63;;;;;;;12.37;89.03;98208.28;5021458;28;20657;-77
2024/03/14 08:14:33;;;;;;;71.28;49.53;;;;;;;12.26;88.36;98201.16;5033561;28;20108;-75
2024/03/14 08:17:00;;;;;;;73.32;50.72;;;;;;;12.26;88.09;98192.25;5030331;28;20046;-77
2024/03/14 08:19:26;;;;;;;85.35;57.10;;;;;;;12.22;88.28;98189.25;5050525;28;20165;-77
2024/03/14 08:21:51;;;;;;;110.75;70.45;;;;;;;12.17;88.71;98194.59;5017111;28;20401;-77
2024/03/14 08:24:19;;;;;;;93.53;62.45;;;;;;;12.20;88.10;98202.19;5015878;28;20033;-77
2024/03/14 08:26:46;;;;;;;76.20;52.42;;;;;;;12.16;88.13;98200.25;5017546;28;20446;-77
2024/03/14 08:29:12;;;;;;;63.42;46.78;;;;;;;12.22;88.48;98221.66;5033790;28;20016;-77
2024/03/14 08:31:40;;;;;;;69.68;49.47;;;;;;;12.12;87.87;98202.63;5009985;28;20080;-77
2024/03/14 08:34:08;;;;;;;64.25;45.97;;;;;;;12.23;87.90;98228.66;5036345;28;20032;-77
2024/03/14 08:36:33;;;;;;;62.72;44.05;;;;;;;12.11;87.96;98192.91;5032865;28;20439;-77
2024/03/14 08:39:00;;;;;;;60.00;43.90;;;;;;;12.27;87.90;98208.22;5032537;28;20025;-77
2024/03/14 08:41:25;;;;;;;57.53;43.50;;;;;;;12.27;87.83;98183.91;5026996;28;20526;-77
2024/03/14 08:43:50;;;;;;;58.83;43.88;;;;;;;12.41;88.33;98195.94;5015921;28;20037;-77
2024/03/14 08:46:16;;;;;;;59.63;42.78;;;;;;;12.43;87.92;98185.69;5033823;28;20040;-77
2024/03/14 08:48:42;;;;;;;57.10;43.65;;;;;;;12.57;87.82;98196.06;5034455;28;20021;-77
2024/03/14 08:51:08;;;;;;;52.28;39.28;;;;;;;12.62;88.29;98209.59;5037037;28;20037;-77
2024/03/14 08:56:19;;;;;;;50.50;36.85;;;;;;;12.61;87.17;98180.94;5045277;28;20037;-76
2024/03/14 08:58:47;;;;;;;47.90;36.80;;;;;;;12.81;86.86;98202.75;5020591;28;20135;-77
2024/03/14 09:01:12;;;;;;;57.53;41.20;;;;;;;12.73;87.60;98187.00;5049944;28;20040;-77
2024/03/14 09:03:38;;;;;;;51.38;36.97;;;;;;;12.80;86.75;98174.06;5019234;28;20025;-77
2024/03/14 09:06:05;;;;;;;45.92;33.50;;;;;;;13.05;87.14;98210.25;5036096;28;20435;-77
2024/03/14 09:08:30;;;;;;;42.33;32.40;;;;;;;13.08;86.37;98208.91;5019873;28;20543;-77
2024/03/14 09:10:56;;;;;;;39.83;31.25;;;;;;;13.15;86.13;98202.22;5018575;28;20055;-77
2024/03/14 09:13:21;;;;;;;40.28;31.17;;;;;;;13.22;85.52;98202.00;5057774;28;20110;-77
2024/03/14 09:15:50;;;;;;;44.92;31.83;;;;;;;13.27;85.37;98210.13;5019617;28;20495;-77
2024/03/14 09:18:17;;;;;;;44.65;31.63;;;;;;;13.27;84.83;98191.19;5036409;28;20025;-77
2024/03/14 09:20:44;;;;;;;42.97;31.25;;;;;;;13.29;84.57;98183.63;5042113;28;20039;-77
2024/03/14 09:23:15;;;;;;;48.20;34.83;;;;;;;13.37;84.77;98185.84;5036423;28;20017;-76
2024/03/14 09:25:41;;;;;;;50.42;37.20;;;;;;;13.46;83.70;98189.69;5030159;28;20568;-77
2024/03/14 09:28:08;;;;;;;57.58;43.15;;;;;;;13.60;84.12;98190.03;5036540;28;20047;-77
2024/03/14 09:30:34;;;;;;;51.63;41.22;;;;;;;13.62;83.60;98183.28;5036864;28;20040;-77
2024/03/14 09:33:00;;;;;;;55.03;43.17;;;;;;;13.89;83.59;98204.75;5037162;28;20025;-77
2024/03/14 09:35:26;;;;;;;55.65;45.00;;;;;;;13.95;82.55;98197.47;5037486;28;20032;-78
2024/03/14 09:37:54;;;;;;;54.58;44.08;;;;;;;14.05;82.36;98202.94;5020790;28;20043;-77
2024/03/14 09:40:21;;;;;;;52.67;42.42;;;;;;;14.04;81.06;98187.75;5021200;28;20036;-77
2024/03/14 09:42:56;;;;;;;50.75;41.47;;;;;;;14.10;80.61;98184.78;5019629;28;20025;-77
2024/03/14 09:45:22;;;;;;;52.00;41.60;;;;;;;14.14;80.88;98185.06;5020283;28;20059;-77
2024/03/14 09:47:48;;;;;;;50.17;40.42;;;;;;;14.32;80.32;98203.56;5021792;28;20123;-77
2024/03/14 09:50:18;;;;;;;47.05;38.67;;;;;;;14.32;79.67;98192.72;5036567;28;20094;-78
2024/03/14 09:52:44;;;;;;;41.42;33.85;;;;;;;14.42;79.54;98200.88;5012994;28;20440;-77
2024/03/14 09:55:14;;;;;;;41.67;31.90;;;;;;;14.43;78.88;98183.53;5027777;28;20043;-77
2024/03/14 09:57:40;;;;;;;39.58;33.22;;;;;;;14.49;78.61;98182.47;5019848;28;20123;-78
2024/03/14 10:00:11;;;;;;;42.35;33.65;;;;;;;14.51;77.29;98185.72;5023688;28;20056;-77
2024/03/14 10:02:41;;;;;;;39.45;32.10;;;;;;;14.60;77.25;98188.69;5038173;28;20033;-78
2024/03/14 10:05:11;;;;;;;38.10;31.15;;;;;;;14.68;76.47;98196.28;5018454;28;20053;-77
2024/03/14 10:07:40;;;;;;;36.28;29.98;;;;;;;14.34;77.06;98152.63;5017834;28;20037;-76
2024/03/14 10:10:07;;;;;;;34.67;28.27;;;;;;;14.59;76.25;98177.03;5019638;28;20079;-78
2024/03/14 10:12:33;;;;;;;34.65;27.33;;;;;;;14.57;75.74;98172.94;5037053;28;20044;-77
2024/03/14 10:15:00;;;;;;;30.67;26.73;;;;;;;14.70;75.66;98196.84;5037601;28;20462;-78
2024/03/14 10:17:31;;;;;;;29.05;25.23;;;;;;;14.64;75.65;98174.31;5044497;28;20044;-78
2024/03/14 10:19:58;;;;;;;34.60;26.88;;;;;;;14.62;75.09;98165.66;5045920;28;20044;-77
2024/03/14 10:22:26;;;;;;;29.35;24.83;;;;;;;14.62;75.12;98170.25;5037106;28;20036;-78
2024/03/14 10:24:51;;;;;;;24.35;21.15;;;;;;;14.73;73.85;98172.69;5033585;28;20125;-78
2024/03/14 10:27:19;;;;;;;31.00;24.38;;;;;;;14.72;74.20;98184.63;5038831;28;20495;-78
2024/03/14 10:29:45;;;;;;;31.45;27.33;;;;;;;14.84;74.14;98174.31;5037675;28;20060;-78
2024/03/14 10:32:11;;;;;;;35.55;29.95;;;;;;;14.75;74.29;98170.53;5037233;28;20021;-77
2024/03/14 10:34:37;;;;;;;35.90;28.77;;;;;;;14.83;73.91;98156.44;5037279;28;20029;-77
2024/03/14 10:37:15;;;;;;;37.28;30.73;;;;;;;14.89;73.43;98147.19;5037445;28;20441;-77
2024/03/14 10:39:57;;;;;;;26.92;23.63;;;;;;;15.10;72.77;98167.78;5040352;28;20131;-77
2024/03/14 10:42:25;;;;;;;27.15;22.30;;;;;;;15.21;72.30;98174.81;5046754;28;20519;-78
2024/03/14 10:44:52;;;;;;;22.90;20.40;;;;;;;14.99;72.04;98141.75;5020087;28;20547;-78
2024/03/14 10:47:18;;;;;;;24.35;21.23;;;;;;;15.19;71.42;98168.84;5020350;28;20039;-78
2024/03/14 10:49:46;;;;;;;26.17;22.05;;;;;;;15.27;71.55;98175.63;5020003;28;20021;-78
2024/03/14 10:52:14;;;;;;;29.42;21.75;;;;;;;15.34;71.36;98172.59;5019568;28;20036;-78
2024/03/14 10:54:46;;;;;;;24.42;19.20;;;;;;;15.32;71.02;98158.50;5020075;28;20120;-78
2024/03/14 10:57:18;;;;;;;21.23;18.98;;;;;;;15.32;71.37;98169.34;5042924;28;20442;-78
2024/03/14 10:59:44;;;;;;;24.77;19.05;;;;;;;15.36;70.75;98165.81;5027877;28;20036;-78
2024/03/14 11:02:14;;;;;;;19.42;16.95;;;;;;;15.40;70.53;98155.25;5044493;28;20519;-78
2024/03/14 11:04:43;;;;;;;21.65;19.35;;;;;;;15.52;70.54;98158.50;5029041;28;20079;-78
2024/03/14 11:07:11;;;;;;;16.55;13.73;;;;;;;15.56;69.61;98151.41;5039242;28;20033;-78
2024/03/14 11:09:48;;;;;;;18.98;15.82;;;;;;;15.71;69.84;98148.63;5062702;28;20021;-78
2024/03/14 11:12:23;;;;;;;23.77;20.95;;;;;;;15.70;70.28;98150.53;5038739;28;20073;-78
2024/03/14 11:14:52;;;;;;;25.08;21.85;;;;;;;15.72;69.89;98148.38;5020802;28;20040;-78
2024/03/14 11:17:20;;;;;;;24.17;20.42;;;;;;;15.78;69.68;98157.28;5045620;28;20021;-78
2024/03/14 11:19:47;;;;;;;20.85;17.65;;;;;;;15.66;69.03;98148.66;5037349;28;20063;-78